• Join FlightAware (Why Join?)
  • Login
  • US Flag 
07:33PM EST


 

Airport Tracker/Info


-or-


 

Live Flight TrackerFlight Track Log ✈ N92PS ✈ 08-Nov-2013 ✈ 01M - 76N

Flight Track Log - Related Links

Times and Time Zones

All times are in EST time to prevent confusion due to time zone crossing. See the N92PS flight status page for this flight to view local times or setup timezone preferences in your user account.

Time Position Orientation Groundspeed Altitude Reporting Facility
EST Latitude Longitude Course Direction KTS MPH feet Rate Location/Type
01:09PM 34.5460 -88.1850 51° Northeast 128 147 1,600  Level FlightAware
01:11PM 34.5903 -88.1042 51° Northeast 182 209 4,600 1,140 Climbing Memphis Center
01:12PM 34.6106 -88.0683 55° Northeast 150 173 5,400 840 Climbing Memphis Center
01:13PM 34.6350 -88.0325 50° Northeast 134 154 6,300 900 Climbing Memphis Center
01:14PM 34.6594 -87.9964 51° Northeast 134 154 7,200 780 Climbing Memphis Center
01:15PM 34.6836 -87.9603 51° Northeast 134 154 7,900 660 Climbing Memphis Center
01:16PM 34.7100 -87.9192 52° Northeast 134 154 8,600 660 Climbing Memphis Center
01:17PM 34.7342 -87.8781 54° Northeast 139 160 9,300 720 Climbing Memphis Center
01:18PM 34.7606 -87.8317 55° Northeast 145 167 10,100 660 Climbing Memphis Center
01:19PM 34.7867 -87.7856 55° Northeast 150 173 10,700 600 Climbing Memphis Center
01:20PM 34.8128 -87.7392 56° Northeast 155 178 11,400 660 Climbing Memphis Center
01:21PM 34.8408 -87.6928 54° Northeast 160 184 12,100 600 Climbing Memphis Center
01:22PM 34.8669 -87.6439 57° Northeast 160 184 12,700 360 Climbing Memphis Center
01:23PM 34.8994 -87.5947 51° Northeast 166 191 12,900 120 Climbing Memphis Center
01:24PM 34.9317 -87.5431 53° Northeast 181 208 13,000 60 Climbing Memphis Center
01:25PM 34.9678 -87.4911 50° Northeast 186 214 13,100  Climbing Memphis Center
01:26PM 35.0022 -87.4417 50° Northeast 186 214 13,100  Level Memphis Center
01:27PM 35.0386 -87.3897 49° Northeast 186 214 13,100  Level Memphis Center
01:28PM 35.0769 -87.3403 47° Northeast 186 214 13,100  Level Memphis Center
01:29PM 35.1133 -87.2881 50° Northeast 191 220 13,100  Level Memphis Center
01:30PM 35.1472 -87.2336 53° Northeast 191 220 13,100  Level Memphis Center
01:31PM 35.1814 -87.1789 53° Northeast 191 220 13,100  Level Memphis Center
01:32PM 35.2133 -87.1244 54° Northeast 191 220 13,100 -120 Level Memphis Center
01:37PM 35.3910 -86.8460 54° Northeast 201 231 12,700 -120 Descending FlightAware
01:37PM 35.4060 -86.8220 53° Northeast 202 232 12,700  Level FlightAware
01:38PM 35.4260 -86.7910 52° Northeast 202 232 12,700  Level FlightAware
01:39PM 35.4580 -86.7440 50° Northeast 201 231 12,700  Level FlightAware
01:40PM 35.4820 -86.7090 50° Northeast 201 231 12,700  Level FlightAware
01:40PM 35.5030 -86.6780 50° Northeast 200 230 12,700  Level FlightAware
01:41PM 35.5190 -86.6530 52° Northeast 200 230 12,700  Level FlightAware
01:41PM 35.5390 -86.6230 51° Northeast 201 231 12,700 -120 Level FlightAware
01:42PM 35.5540 -86.6000 51° Northeast 202 232 12,600 -120 Descending FlightAware
01:43PM 35.5950 -86.5350 52° Northeast 201 231 12,600  Level FlightAware
01:43PM 35.6140 -86.5070 50° Northeast 204 235 12,600  Level FlightAware
01:44PM 35.6520 -86.4490 51° Northeast 202 232 12,600  Level FlightAware
01:45PM 35.6810 -86.4070 50° Northeast 200 230 12,700 60 Climbing FlightAware
01:46PM 35.7020 -86.3760 50° Northeast 202 232 12,700  Level FlightAware
01:47PM 35.7350 -86.3280 50° Northeast 202 232 12,700  Level FlightAware
01:47PM 35.7540 -86.3000 50° Northeast 204 235 12,700  Level FlightAware
01:48PM 35.7950 -86.2390 50° Northeast 206 237 12,700  Level FlightAware
01:49PM 35.8180 -86.2040 51° Northeast 205 236 12,700  Level FlightAware
01:50PM 35.8380 -86.1710 53° Northeast 209 241 12,700  Level FlightAware
01:50PM 35.8640 -86.1310 51° Northeast 207 238 12,700  Level FlightAware
01:51PM 35.8810 -86.1050 51° Northeast 207 238 12,700  Level FlightAware
01:51PM 35.9010 -86.0730 52° Northeast 208 239 12,700  Level FlightAware
01:52PM 35.9240 -86.0390 50° Northeast 207 238 12,700  Level FlightAware
01:53PM 35.9470 -86.0040 51° Northeast 210 242 12,700  Level FlightAware
01:53PM 35.9710 -85.9680 51° Northeast 208 239 12,700  Level FlightAware
01:54PM 35.9890 -85.9400 52° Northeast 206 237 12,700  Level FlightAware
01:54PM 36.0110 -85.9060 51° Northeast 206 237 12,700  Level FlightAware
01:55PM 36.0340 -85.8710 51° Northeast 208 239 12,700  Level FlightAware
01:56PM 36.0650 -85.8200 53° Northeast 208 239 12,700  Level FlightAware
01:57PM 36.0930 -85.7770 51° Northeast 208 239 12,800  Climbing FlightAware
01:57PM 36.1170 -85.7390 52° Northeast 209 241 12,700 -120 Descending FlightAware
01:58PM 36.1430 -85.6970 53° Northeast 211 243 12,700  Level FlightAware
01:58PM 36.1550 -85.6780 52° Northeast 212 244 12,700  Level FlightAware
02:00PM 36.1960 -85.6090 54° Northeast 215 247 12,700  Level FlightAware
02:01PM 36.2280 -85.5580 52° Northeast 212 244 12,700  Level FlightAware
02:01PM 36.2460 -85.5280 53° Northeast 212 244 12,700  Level FlightAware
02:02PM 36.2842 -85.4670 52° Northeast 12,700  Level FlightAware ADS-B
02:02PM 36.2930 -85.4531 52° Northeast 210 242 12,700  Level FlightAware ADS-B
02:03PM 36.3125 -85.4233 51° Northeast 211 243 12,700  Level FlightAware ADS-B
02:03PM 36.3251 -85.4031 52° Northeast 211 243 12,700  Level FlightAware ADS-B
02:04PM 36.3432 -85.3734 53° Northeast 210 242 12,700  Level FlightAware ADS-B
02:04PM 36.3586 -85.3482 53° Northeast 206 237 12,700  Level FlightAware ADS-B
02:05PM 36.3744 -85.3250 50° Northeast 208 239 12,700  Level FlightAware ADS-B
02:05PM 36.3953 -85.2942 50° Northeast 209 241 12,700  Level FlightAware ADS-B
02:05PM 36.4022 -85.2844 49° Northeast 211 243 12,700  Level FlightAware ADS-B
02:06PM 36.4211 -85.2561 50° Northeast 212 244 12,700 60 Level FlightAware ADS-B
02:06PM 36.4404 -85.2271 50° Northeast 209 241 12,800  Climbing FlightAware ADS-B
02:07PM 36.4620 -85.1958 49° Northeast 211 243 12,700 -120 Descending FlightAware ADS-B
02:07PM 36.4807 -85.1665 52° Northeast 212 244 12,700  Level FlightAware ADS-B
02:08PM 36.5010 -85.1331 53° Northeast 211 243 12,700  Level FlightAware ADS-B
02:09PM 36.5209 -85.0994 54° Northeast 211 243 12,700  Level FlightAware ADS-B
02:09PM 36.5342 -85.0766 54° Northeast 211 243 12,700  Level FlightAware ADS-B
02:09PM 36.5459 -85.0568 54° Northeast 208 239 12,700  Level FlightAware ADS-B
02:09PM 36.5550 -85.0429 51° Northeast 208 239 12,700  Level FlightAware ADS-B
02:10PM 36.5733 -85.0140 52° Northeast 209 241 12,700  Level FlightAware ADS-B
02:11PM 36.5942 -84.9811 52° Northeast 209 241 12,700  Level FlightAware ADS-B
02:11PM 36.6054 -84.9636 51° Northeast 212 244 12,700  Level FlightAware ADS-B
02:11PM 36.6253 -84.9344 50° Northeast 212 244 12,700  Level FlightAware ADS-B
02:12PM 36.6450 -84.9058 49° Northeast 209 241 12,700  Level FlightAware ADS-B
02:12PM 36.6616 -84.8815 50° Northeast 210 242 12,700 60 Level FlightAware ADS-B
02:13PM 36.6772 -84.8571 51° Northeast 204 235 12,800  Climbing FlightAware ADS-B
02:13PM 36.6956 -84.8270 53° Northeast 209 241 12,700  Descending FlightAware ADS-B
02:14PM 36.7037 -84.8139 52° Northeast 207 238 12,800  Climbing FlightAware ADS-B
02:14PM 36.7227 -84.7825 53° Northeast 212 244 12,700 -120 Descending FlightAware ADS-B
02:15PM 36.7406 -84.7511 55° Northeast 210 242 12,700  Level FlightAware ADS-B
02:17PM 36.8082 -84.6385 53° Northeast 210 242 12,800  Climbing FlightAware ADS-B
02:18PM 36.8493 -84.5750 51° Northeast 207 238 12,700 -60 Descending FlightAware ADS-B
02:18PM 36.8757 -84.5366 49° Northeast 206 237 12,700  Level FlightAware ADS-B
02:19PM 36.9151 -84.4784 50° Northeast 205 236 12,700  Level FlightAware ADS-B
02:20PM 36.9356 -84.4358 59° Northeast 205 236 12,700  Level FlightAware ADS-B
02:20PM 36.9390 -84.4271 64° Northeast 218 251 12,700  Level FlightAware ADS-B
02:20PM 36.9431 -84.4178 61° Northeast 216 249 12,700 -120 Level FlightAware ADS-B
02:22PM 36.9830 -84.3510 53° Northeast 208 239 12,600 -60 Descending FlightAware
02:22PM 37.0030 -84.3180 53° Northeast 205 236 12,600  Level FlightAware
02:23PM 37.0450 -84.2540 51° Northeast 207 238 12,600  Level FlightAware
02:24PM 37.0650 -84.2220 52° Northeast 205 236 12,600  Level FlightAware
02:24PM 37.0840 -84.1920 52° Northeast 206 237 12,600  Level FlightAware
02:25PM 37.1110 -84.1510 50° Northeast 206 237 12,600 60 Level FlightAware
02:26PM 37.1290 -84.1220 52° Northeast 205 236 12,700 180 Climbing FlightAware
02:26PM 37.1490 -84.0900 52° Northeast 207 238 12,800  Climbing FlightAware
02:27PM 37.1740 -84.0500 52° Northeast 209 241 12,700 -120 Descending FlightAware
02:27PM 37.1940 -84.0190 51° Northeast 209 241 12,700  Level FlightAware
02:28PM 37.2110 -83.9910 53° Northeast 206 237 12,700  Level FlightAware
02:29PM 37.2350 -83.9510 53° Northeast 207 238 12,700 -120 Level FlightAware
02:29PM 37.2560 -83.9170 52° Northeast 204 235 12,600 -120 Descending FlightAware
02:30PM 37.2890 -83.8620 53° Northeast 203 234 12,600  Level FlightAware
02:31PM 37.3050 -83.8340 54° Northeast 203 234 12,600  Level FlightAware
02:31PM 37.3290 -83.7920 54° Northeast 201 231 12,600 60 Level FlightAware
02:32PM 37.3490 -83.7560 55° Northeast 200 230 12,700 60 Climbing FlightAware
02:33PM 37.3710 -83.7200 52° Northeast 200 230 12,700  Level FlightAware
02:33PM 37.3930 -83.6830 53° Northeast 201 231 12,700  Level FlightAware
02:34PM 37.4100 -83.6540 54° Northeast 201 231 12,700 60 Level FlightAware
02:35PM 37.4480 -83.5910 53° Northeast 199 229 12,800  Climbing FlightAware
02:36PM 37.4890 -83.5260 52° Northeast 200 230 12,700 -60 Descending FlightAware
02:37PM 37.5090 -83.4910 54° Northeast 198 228 12,700  Level FlightAware
02:37PM 37.5300 -83.4570 52° Northeast 199 229 12,700  Level FlightAware
02:38PM 37.5540 -83.4170 53° Northeast 199 229 12,700  Level FlightAware
02:39PM 37.5650 -83.3980 54° Northeast 199 229 12,700  Level FlightAware
02:39PM 37.5830 -83.3690 52° Northeast 199 229 12,700 -60 Level FlightAware
02:45PM 37.7820 -83.0340 53° Northeast 197 227 12,600 -60 Descending FlightAware
02:46PM 37.8010 -83.0020 53° Northeast 197 227 12,600  Level FlightAware
02:46PM 37.8220 -82.9700 50° Northeast 196 226 12,600 60 Level FlightAware
02:47PM 37.8520 -82.9160 55° Northeast 202 232 12,700 60 Climbing FlightAware
02:48PM 37.8690 -82.8860 54° Northeast 202 232 12,700  Level FlightAware
02:48PM 37.8860 -82.8560 54° Northeast 202 232 12,700  Level FlightAware
02:49PM 37.8910 -82.8460 58° Northeast 202 232 12,700 240 Level FlightAware
02:50PM 37.9389 -82.7464 58° Northeast 203 234 13,100 120 Climbing Indianapolis Center
02:51PM 37.9736 -82.6903 52° Northeast 203 234 13,100  Level Indianapolis Center
02:52PM 38.0072 -82.6344 53° Northeast 200 230 13,200 -120 Climbing Indianapolis Center
02:57PM 38.1810 -82.3340 53° Northeast 196 226 12,700 -120 Descending FlightAware
02:58PM 38.1970 -82.3070 53° Northeast 196 226 12,700  Level FlightAware
02:59PM 38.2130 -82.2790 54° Northeast 196 226 12,700  Level FlightAware
03:00PM 38.2610 -82.2110 48° Northeast 200 230 12,700  Level FlightAware
03:01PM 38.2940 -82.1530 54° Northeast 197 227 12,700  Level FlightAware
03:01PM 38.3110 -82.1220 55° Northeast 196 226 12,700  Level FlightAware
03:02PM 38.3300 -82.0870 55° Northeast 194 223 12,700  Level FlightAware
03:02PM 38.3510 -82.0520 53° Northeast 195 224 12,700 60 Level FlightAware
03:03PM 38.3840 -81.9980 52° Northeast 194 223 12,800  Climbing FlightAware
03:04PM 38.4160 -81.9410 54° Northeast 200 230 12,800  Level FlightAware
03:05PM 38.4330 -81.9100 55° Northeast 201 231 12,800 -120 Level FlightAware
03:06PM 38.4660 -81.8510 54° Northeast 196 226 12,700 -120 Descending FlightAware
03:07PM 38.4830 -81.8180 57° Northeast 198 228 12,700  Level FlightAware
03:07PM 38.4990 -81.7870 57° Northeast 198 228 12,700 60 Level FlightAware
03:08PM 38.5200 -81.7470 56° Northeast 196 226 12,800  Climbing FlightAware
03:08PM 38.5360 -81.7160 57° Northeast 199 229 12,700  Descending FlightAware
03:09PM 38.5530 -81.6830 57° Northeast 198 228 12,800 60 Climbing FlightAware
03:09PM 38.5660 -81.6580 56° Northeast 195 224 12,800  Level FlightAware
03:10PM 38.5900 -81.6200 51° Northeast 193 222 12,800  Level FlightAware
03:10PM 38.6050 -81.5970 50° Northeast 194 223 12,800  Level FlightAware
03:11PM 38.6250 -81.5670 50° Northeast 194 223 12,800  Level FlightAware
03:11PM 38.6320 -81.5560 51° Northeast 197 227 12,800 -120 Level FlightAware
03:12PM 38.6660 -81.4950 54° Northeast 197 227 12,700 -60 Descending FlightAware
03:13PM 38.6860 -81.4600 54° Northeast 196 226 12,700  Level FlightAware
03:14PM 38.7150 -81.4050 56° Northeast 197 227 12,700  Level FlightAware
03:14PM 38.7320 -81.3700 58° Northeast 197 227 12,700  Level FlightAware
03:15PM 38.7520 -81.3290 58° Northeast 196 226 12,700  Level FlightAware
03:16PM 38.7840 -81.2700 55° Northeast 189 217 12,800  Climbing FlightAware
03:17PM 38.8130 -81.2170 55° Northeast 194 223 12,800  Level FlightAware
03:18PM 38.8300 -81.1870 54° Northeast 194 223 12,800  Level FlightAware
03:18PM 38.8450 -81.1580 56° Northeast 194 223 12,800  Level FlightAware
03:19PM 38.8660 -81.1210 54° Northeast 194 223 12,800 180 Level FlightAware
03:20PM 38.8975 -81.0636 54° Northeast 199 229 13,100 120 Climbing Indianapolis Center
03:21PM 38.9300 -81.0067 54° Northeast 199 229 13,100  Level Indianapolis Center
03:22PM 38.9625 -80.9503 53° Northeast 197 227 13,100  Level Indianapolis Center
03:23PM 39.0006 -80.8792 55° Northeast 200 230 13,100  Level Indianapolis Center
03:24PM 39.0314 -80.8192 57° Northeast 201 231 13,100 -60 Level Indianapolis Center
03:25PM 39.0622 -80.7614 55° Northeast 198 228 13,000 -60 Descending Indianapolis Center
03:26PM 39.0933 -80.7025 56° Northeast 197 227 13,000  Level Indianapolis Center
03:27PM 39.1244 -80.6419 56° Northeast 201 231 13,000  Level Indianapolis Center
03:28PM 39.1578 -80.5853 53° Northeast 200 230 13,000  Level Indianapolis Center
03:29PM 39.1914 -80.5303 52° Northeast 197 227 13,000  Level Indianapolis Center
03:30PM 39.2325 -80.4656 51° Northeast 195 224 13,000  Level Indianapolis Center
03:31PM 39.2658 -80.4069 54° Northeast 199 229 13,100  Climbing Indianapolis Center
03:32PM 39.2994 -80.3486 53° Northeast 202 232 13,000 -60 Descending Indianapolis Center
03:33PM 39.3317 -80.2889 55° Northeast 202 232 13,000  Level Indianapolis Center
03:34PM 39.3631 -80.2261 57° Northeast 205 236 13,100  Climbing Indianapolis Center
03:35PM 39.3947 -80.1650 56° Northeast 205 236 13,000  Descending Indianapolis Center
03:36PM 39.4292 -80.1078 52° Northeast 202 232 13,100  Climbing Indianapolis Center
03:38PM 39.4683 -80.0344 55° Northeast 205 236 13,100  Level Indianapolis Center
03:39PM 39.5003 -79.9725 56° Northeast 205 236 13,100 -120 Level Indianapolis Center
03:44PM 39.6790 -79.6460 56° Northeast 198 228 12,700 -60 Descending FlightAware
03:45PM 39.7050 -79.5930 57° Northeast 197 227 12,800  Climbing FlightAware
03:46PM 39.7330 -79.5370 57° Northeast 198 228 12,800  Level FlightAware
03:46PM 39.7500 -79.5030 57° Northeast 196 226 12,800  Level FlightAware
03:47PM 39.7780 -79.4490 56° Northeast 194 223 12,800  Level FlightAware
03:48PM 39.7930 -79.4210 55° Northeast 192 221 12,800  Level FlightAware
03:49PM 39.8330 -79.3520 53° Northeast 198 228 12,800  Level FlightAware
03:49PM 39.8470 -79.3280 53° Northeast 199 229 12,800 -120 Level FlightAware
03:50PM 39.8750 -79.2740 56° Northeast 195 224 12,700  Descending FlightAware
03:51PM 39.8890 -79.2460 57° Northeast 194 223 12,800 60 Climbing FlightAware
03:51PM 39.9070 -79.2110 56° Northeast 197 227 12,800  Level FlightAware
03:52PM 39.9270 -79.1700 58° Northeast 199 229 12,800  Level FlightAware
03:53PM 39.9450 -79.1370 55° Northeast 201 231 12,800  Level FlightAware
03:53PM 39.9610 -79.1070 55° Northeast 201 231 12,800 -120 Level FlightAware
03:54PM 39.9930 -79.0400 58° Northeast 200 230 12,700 -60 Descending FlightAware
03:55PM 40.0100 -79.0050 58° Northeast 194 223 12,700 -120 Level FlightAware
03:56PM 40.0400 -78.9440 57° Northeast 189 217 12,600  Descending FlightAware
03:56PM 40.0530 -78.9170 58° Northeast 179 206 12,700 60 Climbing FlightAware
03:57PM 40.0720 -78.8830 54° Northeast 188 216 12,700 60 Level FlightAware
03:58PM 40.0910 -78.8480 55° Northeast 187 215 12,800 60 Climbing FlightAware
03:58PM 40.1120 -78.8090 55° Northeast 199 229 12,800 -60 Level FlightAware
03:59PM 40.1440 -78.7480 56° Northeast 196 226 12,700  Descending FlightAware
04:00PM 40.1570 -78.7250 54° Northeast 191 220 12,800 60 Climbing FlightAware
04:01PM 40.1840 -78.6720 56° Northeast 197 227 12,800  Level FlightAware
04:01PM 40.2000 -78.6420 55° Northeast 197 227 12,800 -120 Level FlightAware
04:02PM 40.2220 -78.5990 56° Northeast 196 226 12,700 -120 Descending FlightAware
04:03PM 40.2380 -78.5680 56° Northeast 196 226 12,700  Level FlightAware
04:03PM 40.2590 -78.5280 55° Northeast 196 226 12,700 120 Level FlightAware
04:05PM 40.2972 -78.4458 55° Northeast 195 224 13,000 120 Climbing Cleveland Center
04:06PM 40.3333 -78.3781 55° Northeast 192 221 13,100  Climbing Cleveland Center
04:07PM 40.3661 -78.3211 53° Northeast 194 223 13,000 -60 Descending Cleveland Center
04:08PM 40.3967 -78.2642 55° Northeast 194 223 13,000  Level Cleveland Center
04:09PM 40.4258 -78.2114 54° Northeast 187 215 13,100  Climbing Cleveland Center
04:10PM 40.4556 -78.1556 55° Northeast 188 216 13,100  Level Cleveland Center
04:11PM 40.4928 -78.0861 55° Northeast 196 226 13,100  Level Cleveland Center
04:12PM 40.5186 -78.0236 61° Northeast 198 228 13,100  Level Cleveland Center
04:13PM 40.5450 -77.9617 61° Northeast 196 226 13,100  Level Cleveland Center
04:14PM 40.5728 -77.9019 59° Northeast 194 223 13,100  Level Cleveland Center
04:15PM 40.6006 -77.8414 59° Northeast 194 223 13,100  Level Cleveland Center
04:16PM 40.6361 -77.7753 55° Northeast 188 216 13,100 -60 Level Cleveland Center
04:21PM 40.7890 -77.4840 55° Northeast 189 217 12,800 -60 Descending FlightAware
04:22PM 40.8050 -77.4550 54° Northeast 190 219 12,800 60 Level FlightAware
04:22PM 40.8200 -77.4300 52° Northeast 184 212 12,900 60 Climbing FlightAware
04:23PM 40.8350 -77.3990 57° Northeast 189 217 12,900 -120 Level FlightAware
04:23PM 40.8590 -77.3500 57° Northeast 184 212 12,800 -120 Descending FlightAware
04:24PM 40.8790 -77.3080 58° Northeast 184 212 12,800 60 Level FlightAware
04:25PM 40.8940 -77.2780 57° Northeast 186 214 12,900 60 Climbing FlightAware
04:26PM 40.9240 -77.2180 56° Northeast 190 219 12,900  Level FlightAware
04:26PM 40.9370 -77.1910 57° Northeast 194 223 12,900  Level FlightAware
04:27PM 40.9540 -77.1550 58° Northeast 196 226 12,900  Level FlightAware
04:27PM 40.9680 -77.1250 58° Northeast 198 228 12,900 -120 Level FlightAware
04:28PM 40.9840 -77.0920 57° Northeast 204 235 12,800  Descending FlightAware
04:29PM 41.0030 -77.0500 59° Northeast 195 224 12,900 60 Climbing FlightAware
04:29PM 41.0170 -77.0200 58° Northeast 196 226 12,900 -120 Level FlightAware
04:30PM 41.0330 -76.9840 59° Northeast 200 230 12,800 -120 Descending FlightAware
04:30PM 41.0480 -76.9490 60° Northeast 202 232 12,800  Level FlightAware
04:31PM 41.0760 -76.8860 59° Northeast 205 236 12,800 -180 Level FlightAware
04:32PM 41.0880 -76.8610 58° Northeast 215 247 12,600 -660 Descending FlightAware
04:33PM 41.1270 -76.7780 58° Northeast 218 251 11,800 -720 Descending FlightAware
04:33PM 41.1420 -76.7450 59° Northeast 215 247 11,400 -1,020 Descending FlightAware
04:34PM 41.1580 -76.7140 56° Northeast 216 249 10,900 -660 Descending FlightAware
04:35PM 41.1860 -76.6560 57° Northeast 209 241 10,500 -540 Descending FlightAware
04:35PM 41.2020 -76.6230 57° Northeast 211 243 10,200 -540 Descending FlightAware
04:35PM 41.2100 -76.6070 56° Northeast 208 239 10,100 -360 Descending FlightAware
04:36PM 41.2390 -76.5490 56° Northeast 202 232 9,800 -360 Descending FlightAware
04:37PM 41.2480 -76.5300 58° Northeast 203 234 9,700 -180 Descending FlightAware
04:37PM 41.2620 -76.5010 57° Northeast 199 229 9,700 -180 Level FlightAware
04:37PM 41.2700 -76.4850 56° Northeast 195 224 9,600 -240 Descending FlightAware
04:38PM 41.2840 -76.4560 57° Northeast 196 226 9,500 -420 Descending FlightAware
04:38PM 41.3030 -76.4190 56° Northeast 192 221 9,200 -240 Descending FlightAware
04:39PM 41.3260 -76.3770 54° Northeast 192 221 9,200  Level FlightAware
04:40PM 41.3370 -76.3560 55° Northeast 192 221 9,200  Level FlightAware
04:40PM 41.3530 -76.3260 55° Northeast 192 221 9,200 -240 Level FlightAware
04:41PM 41.3819 -76.2594 55° Northeast 183 211 8,900 -540 Descending New York Center
04:42PM 41.4119 -76.1983 57° Northeast 183 211 8,200 -540 Descending New York Center
04:43PM 41.4353 -76.1447 60° Northeast 183 211 7,900 -420 Descending New York Center
04:44PM 41.4628 -76.0889 57° Northeast 178 205 7,400 -840 Descending New York Center
04:45PM 41.4928 -76.0247 58° Northeast 178 205 6,300 -900 Descending New York Center
04:46PM 41.5183 -75.9631 61° Northeast 184 212 5,600 1,320 Descending New York Center
04:47PM 41.5417 -75.9039 62° Northeast 184 212 9,000 1,680 Climbing New York Center
04:48PM 41.5653 -75.8419 63° Northeast 184 212 9,000  Level New York Center
04:49PM 41.5886 -75.7828 62° Northeast 184 212 9,000  Level New York Center
04:50PM 41.6025 -75.7450 64° Northeast 184 212 9,000  Level New York Center
04:56PM 41.5670 -75.8231 239° Southwest  Level FlightAware Approximate
05:03PM 41.5167 -75.9333 241° Southwest  Level FlightAware Approximate
05:04PM 41.5292 -75.9469 241° Southwest  Level Estimated
05:05PM 41.5292 -75.9469 241° Southwest  Level Estimated
05:06PM 41.5292 -75.9469 241° Southwest  Level Estimated
05:07PM 41.5292 -75.9469 241° Southwest  Level Estimated
05:08PM 41.5292 -75.9469 241° Southwest  Level Estimated